Time;durP1;ratioP1;P1;durP2;ratioP2;P2;SDS_P1;SDS_P2;PMS_P1;PMS_P2;Temp;Humidity;BMP_temperature;BMP_pressure;BME280_temperature;BME280_humidity;BME280_pressure;Samples;Min_cycle;Max_cycle;Signal;HPM_P1;HPM_P2
2021/03/15 00:00:51;;;;;;;3.08;2.28;;;17.90;22.00;;;;;;5114497;28;20199;-53
2021/03/15 00:03:17;;;;;;;2.95;2.75;;;17.90;21.90;;;;;;5114673;28;20304;-53
2021/03/15 00:05:46;;;;;;;3.65;2.50;;;17.90;22.00;;;;;;5114614;28;20150;-53
2021/03/15 00:08:12;;;;;;;2.90;2.60;;;17.90;22.00;;;;;;5114632;28;20658;-53
2021/03/15 00:10:38;;;;;;;3.17;2.80;;;17.90;22.00;;;;;;5114634;28;20236;-53
2021/03/15 00:13:05;;;;;;;3.00;2.80;;;17.90;22.00;;;;;;5114764;28;20157;-53
2021/03/15 00:15:31;;;;;;;2.78;2.50;;;17.90;22.00;;;;;;5114157;28;20164;-53
2021/03/15 00:17:57;;;;;;;2.58;2.38;;;17.90;22.00;;;;;;5114442;28;20158;-53
2021/03/15 00:20:25;;;;;;;2.92;2.63;;;17.90;22.50;;;;;;5114167;28;20174;-54
2021/03/15 00:22:51;;;;;;;4.13;3.05;;;17.90;22.00;;;;;;5113541;28;20185;-54
2021/03/15 00:25:18;;;;;;;2.40;2.20;;;17.90;22.00;;;;;;5114495;28;20279;-53
2021/03/15 00:27:47;;;;;;;2.88;2.10;;;17.90;22.00;;;;;;5114454;28;20152;-53
2021/03/15 00:30:16;;;;;;;2.55;2.35;;;17.90;22.00;;;;;;5113775;28;20184;-53
2021/03/15 00:32:43;;;;;;;2.33;2.13;;;17.90;22.00;;;;;;5114282;28;20169;-54
2021/03/15 00:35:11;;;;;;;3.70;2.60;;;17.90;22.00;;;;;;5114164;28;20294;-53
2021/03/15 00:37:38;;;;;;;3.15;2.88;;;17.90;22.00;;;;;;5114407;28;20168;-53
2021/03/15 00:40:08;;;;;;;2.67;2.35;;;17.90;22.00;;;;;;5114219;28;20233;-53
2021/03/15 00:42:34;;;;;;;2.55;2.28;;;17.90;22.00;;;;;;5114296;28;20207;-54
2021/03/15 00:45:03;;;;;;;2.75;2.55;;;17.90;22.00;;;;;;5113626;28;20615;-53
2021/03/15 00:47:28;;;;;;;2.72;2.10;;;17.90;22.00;;;;;;5114117;28;20157;-53
2021/03/15 00:49:54;;;;;;;2.63;2.43;;;17.90;22.00;;;;;;5114003;28;20569;-53
2021/03/15 00:52:19;;;;;;;4.90;2.83;;;17.90;22.00;;;;;;5114325;28;20161;-53
2021/03/15 00:54:50;;;;;;;3.00;2.20;;;17.90;22.00;;;;;;5114043;28;20620;-52
2021/03/15 00:57:17;;;;;;;3.28;2.40;;;17.90;22.00;;;;;;5114190;28;20156;-53
2021/03/15 00:59:44;;;;;;;2.60;2.03;;;17.90;22.10;;;;;;5113628;28;20149;-53
2021/03/15 01:02:10;;;;;;;2.50;2.30;;;17.90;22.10;;;;;;5113896;28;20200;-53
2021/03/15 01:04:38;;;;;;;2.70;2.03;;;17.90;22.10;;;;;;5113965;28;20161;-53
2021/03/15 01:07:05;;;;;;;2.72;2.35;;;17.90;22.00;;;;;;5114011;28;20173;-53
2021/03/15 01:09:31;;;;;;;2.05;1.88;;;17.90;22.10;;;;;;5113696;28;20173;-53
2021/03/15 01:11:59;;;;;;;2.80;2.57;;;17.90;22.10;;;;;;5113882;28;20158;-53
2021/03/15 01:14:24;;;;;;;2.40;2.20;;;17.90;22.10;;;;;;5113474;28;20150;-53
2021/03/15 01:16:51;;;;;;;2.53;2.20;;;17.90;22.10;;;;;;5113737;28;20169;-53
2021/03/15 01:19:16;;;;;;;2.63;2.42;;;17.90;22.10;;;;;;5095820;28;20282;-53
2021/03/15 01:21:42;;;;;;;2.93;2.50;;;17.80;22.00;;;;;;5113824;28;20292;-54
2021/03/15 01:24:11;;;;;;;2.10;1.90;;;17.80;22.00;;;;;;5113704;28;20525;-53
2021/03/15 01:26:37;;;;;;;2.50;2.30;;;17.80;22.00;;;;;;5114136;28;20161;-53
2021/03/15 01:29:02;;;;;;;2.07;1.97;;;17.90;22.10;;;;;;5113590;28;20634;-53
2021/03/15 01:31:30;;;;;;;2.30;2.10;;;17.80;22.00;;;;;;5113784;28;20957;-53
2021/03/15 01:33:56;;;;;;;2.08;1.90;;;17.80;22.00;;;;;;5114898;28;20181;-53
2021/03/15 01:36:22;;;;;;;2.20;2.00;;;17.80;22.00;;;;;;5117591;28;20153;-53
2021/03/15 01:38:47;;;;;;;2.70;2.50;;;17.80;22.00;;;;;;5117659;28;20165;-53
2021/03/15 01:41:13;;;;;;;3.30;2.37;;;17.80;22.00;;;;;;5117858;28;20163;-52
2021/03/15 01:43:38;;;;;;;3.03;2.37;;;17.80;22.00;;;;;;5099258;28;20566;-53
2021/03/15 01:46:04;;;;;;;3.20;2.40;;;17.80;22.00;;;;;;5098654;28;20175;-54
2021/03/15 01:48:30;;;;;;;2.50;2.30;;;17.80;22.10;;;;;;5117581;28;20149;-54
2021/03/15 01:50:56;;;;;;;3.10;2.43;;;17.80;22.00;;;;;;5099083;28;20158;-54
2021/03/15 01:53:21;;;;;;;2.33;2.13;;;17.80;22.00;;;;;;5117379;28;20161;-54
2021/03/15 01:55:48;;;;;;;2.40;2.13;;;17.80;22.10;;;;;;5117144;28;20204;-52
2021/03/15 01:58:17;;;;;;;2.20;2.00;;;17.80;22.00;;;;;;5117257;28;20393;-52
2021/03/15 02:00:44;;;;;;;2.75;1.90;;;17.80;22.10;;;;;;5116497;28;20161;-52
2021/03/15 02:03:10;;;;;;;2.38;2.17;;;17.80;22.00;;;;;;5117211;28;20211;-52
2021/03/15 02:05:37;;;;;;;3.63;2.83;;;17.80;22.10;;;;;;5117050;28;20149;-53
2021/03/15 02:08:07;;;;;;;2.50;2.30;;;17.80;22.10;;;;;;5116833;28;20157;-53
2021/03/15 02:10:34;;;;;;;2.60;2.40;;;17.80;22.10;;;;;;5116969;28;20162;-53
2021/03/15 02:13:37;;;;;;;2.65;2.33;;;17.80;22.10;;;;;;5116887;28;20157;-53
2021/03/15 02:16:25;;;;;;;2.42;2.22;;;17.80;22.10;;;;;;5116354;28;20164;-53
2021/03/15 02:19:02;;;;;;;2.45;2.25;;;17.80;22.10;;;;;;5116729;28;20192;-53
2021/03/15 02:22:05;;;;;;;2.45;2.15;;;17.80;22.10;;;;;;5116728;28;20220;-53
2021/03/15 02:25:08;;;;;;;2.33;2.08;;;17.80;22.10;;;;;;5033903;28;20211;-53
2021/03/15 02:27:49;;;;;;;3.28;2.72;;;17.80;22.20;;;;;;5116741;28;20190;-53
2021/03/15 02:30:39;;;;;;;2.33;2.10;;;17.80;22.10;;;;;;5116027;28;20158;-53
2021/03/15 02:33:27;;;;;;;2.35;2.10;;;17.80;22.10;;;;;;5116561;28;20156;-53
2021/03/15 02:35:56;;;;;;;2.40;2.10;;;17.80;22.10;;;;;;5116239;28;20184;-53
2021/03/15 02:38:25;;;;;;;3.00;2.20;;;17.80;22.10;;;;;;5116521;28;20157;-53
2021/03/15 02:40:56;;;;;;;2.30;2.10;;;17.80;22.20;;;;;;5116288;28;20158;-53
2021/03/15 02:43:34;;;;;;;2.42;2.22;;;17.80;22.20;;;;;;5116206;28;20176;-53
2021/03/15 02:46:04;;;;;;;2.60;1.92;;;17.80;22.10;;;;;;5114651;28;20202;-52
2021/03/15 02:48:32;;;;;;;2.78;2.47;;;17.80;22.20;;;;;;5116365;28;20149;-53
2021/03/15 02:51:03;;;;;;;2.70;2.50;;;17.80;22.70;;;;;;5115998;28;20156;-53
2021/03/15 02:53:33;;;;;;;2.08;1.88;;;17.70;22.10;;;;;;5116302;28;20153;-53
2021/03/15 02:56:05;;;;;;;2.90;2.20;;;17.80;22.20;;;;;;5115995;28;20153;-53
2021/03/15 02:58:32;;;;;;;2.90;2.60;;;17.70;22.10;;;;;;5116048;28;20157;-53
2021/03/15 03:01:00;;;;;;;2.65;2.35;;;17.80;22.20;;;;;;5115456;28;20164;-53
2021/03/15 03:03:29;;;;;;;2.40;2.20;;;17.80;22.20;;;;;;5115905;28;20189;-53
2021/03/15 03:05:56;;;;;;;2.25;2.05;;;17.80;22.20;;;;;;5115770;28;20153;-52
2021/03/15 03:08:25;;;;;;;3.03;2.78;;;17.70;22.10;;;;;;5115841;28;20224;-53
2021/03/15 03:10:51;;;;;;;2.35;2.03;;;17.70;22.10;;;;;;5115740;28;20153;-53
2021/03/15 03:13:24;;;;;;;2.17;2.00;;;17.70;22.10;;;;;;5115918;28;20181;-53
2021/03/15 03:15:51;;;;;;;2.25;1.98;;;17.70;22.10;;;;;;5115242;28;20164;-52
2021/03/15 03:18:20;;;;;;;2.65;1.80;;;17.80;22.20;;;;;;5115842;28;20167;-52
2021/03/15 03:20:52;;;;;;;2.58;2.38;;;17.80;22.20;;;;;;5097782;28;20217;-53
2021/03/15 03:23:19;;;;;;;3.72;2.50;;;17.70;22.10;;;;;;5131325;27;20520;-52
2021/03/15 03:25:46;;;;;;;3.20;2.80;;;17.70;22.10;;;;;;5115482;28;20157;-53
2021/03/15 03:28:13;;;;;;;2.15;1.92;;;17.80;22.20;;;;;;5115429;28;20164;-53
2021/03/15 03:30:40;;;;;;;2.38;2.17;;;17.70;22.20;;;;;;5096574;28;20173;-53
2021/03/15 03:33:07;;;;;;;2.50;2.30;;;17.70;22.60;;;;;;5115610;28;20184;-53
2021/03/15 03:35:33;;;;;;;2.47;2.28;;;17.70;22.10;;;;;;5115100;28;20536;-54
2021/03/15 03:37:59;;;;;;;2.17;1.97;;;17.70;22.10;;;;;;5115265;28;20616;-52
2021/03/15 03:40:26;;;;;;;2.00;1.90;;;17.70;22.10;;;;;;5115139;28;20410;-53
2021/03/15 03:42:54;;;;;;;2.25;2.05;;;17.70;22.10;;;;;;5115212;28;20226;-52
2021/03/15 03:45:21;;;;;;;2.83;2.30;;;17.70;22.10;;;;;;5114701;28;20158;-52
2021/03/15 03:47:47;;;;;;;2.30;2.08;;;17.70;21.70;;;;;;5115375;28;20592;-52
2021/03/15 03:50:17;;;;;;;3.00;2.35;;;17.70;22.20;;;;;;5115016;28;20164;-53
2021/03/15 03:53:01;;;;;;;2.53;1.88;;;17.70;22.20;;;;;;5114783;28;20279;-53
2021/03/15 03:55:30;;;;;;;2.10;1.90;;;17.70;22.10;;;;;;5114795;28;20160;-53
2021/03/15 03:57:58;;;;;;;2.60;2.20;;;17.70;22.10;;;;;;5114727;28;20164;-53
2021/03/15 04:00:31;;;;;;;2.25;1.92;;;17.70;22.20;;;;;;5114414;28;20165;-53
2021/03/15 04:03:12;;;;;;;2.15;1.95;;;17.70;22.20;;;;;;5114791;28;20196;-53
2021/03/15 04:05:41;;;;;;;2.33;2.00;;;17.70;22.20;;;;;;5114646;28;20226;-53
2021/03/15 04:08:09;;;;;;;3.50;2.17;;;17.70;22.10;;;;;;5114678;28;20145;-53
2021/03/15 04:10:36;;;;;;;2.33;2.08;;;17.70;22.20;;;;;;5114529;28;20182;-53
2021/03/15 04:13:11;;;;;;;2.10;1.90;;;17.70;22.10;;;;;;5114705;28;20161;-53
2021/03/15 04:15:43;;;;;;;2.00;1.90;;;17.70;22.10;;;;;;5114058;28;20244;-53
2021/03/15 04:18:12;;;;;;;2.30;2.10;;;17.70;22.20;;;;;;5114548;28;20145;-52
2021/03/15 04:20:41;;;;;;;2.08;1.88;;;17.70;22.70;;;;;;5096029;28;20217;-53
2021/03/15 04:23:12;;;;;;;2.40;2.20;;;17.70;22.10;;;;;;5096291;28;20280;-53
2021/03/15 04:25:39;;;;;;;1.50;1.40;;;17.70;22.20;;;;;;5114204;28;20161;-52
2021/03/15 04:28:06;;;;;;;2.78;2.17;;;17.70;22.10;;;;;;5114300;28;20264;-53
2021/03/15 04:30:32;;;;;;;2.25;1.98;;;17.70;22.20;;;;;;5113807;28;20153;-53
2021/03/15 04:32:59;;;;;;;2.40;2.20;;;17.70;22.20;;;;;;5114323;28;20628;-53
2021/03/15 04:35:30;;;;;;;2.63;1.77;;;17.70;22.20;;;;;;5114155;28;20378;-53
2021/03/15 04:38:01;;;;;;;2.45;2.25;;;17.70;22.20;;;;;;5114210;28;20157;-53
2021/03/15 04:40:29;;;;;;;2.40;1.95;;;17.70;22.20;;;;;;5114033;28;20244;-53
2021/03/15 04:43:01;;;;;;;2.50;2.30;;;17.70;22.20;;;;;;5114214;28;20189;-53
2021/03/15 04:45:29;;;;;;;2.47;1.80;;;17.70;22.20;;;;;;5113665;28;20149;-53
2021/03/15 04:47:57;;;;;;;1.98;1.77;;;17.70;22.20;;;;;;5114179;28;20564;-53
2021/03/15 04:50:24;;;;;;;2.25;2.05;;;17.70;22.10;;;;;;5114130;28;20154;-53
2021/03/15 04:52:55;;;;;;;2.13;1.80;;;17.70;22.20;;;;;;5129966;28;20168;-53
2021/03/15 04:55:28;;;;;;;2.22;2.03;;;17.70;22.20;;;;;;5114013;28;20161;-52
2021/03/15 04:57:57;;;;;;;2.67;1.95;;;17.70;22.20;;;;;;5095690;28;20173;-53
2021/03/15 05:00:23;;;;;;;2.45;2.08;;;17.70;22.20;;;;;;5113368;28;20648;-52
2021/03/15 05:02:51;;;;;;;2.58;2.30;;;17.70;22.20;;;;;;5113940;28;20200;-52
2021/03/15 05:05:20;;;;;;;2.38;1.90;;;17.70;22.70;;;;;;5113955;28;20208;-53
2021/03/15 05:07:50;;;;;;;2.35;2.15;;;17.70;22.20;;;;;;5113799;28;20643;-52
2021/03/15 05:10:18;;;;;;;2.15;1.95;;;17.70;22.20;;;;;;5117607;28;20149;-52
2021/03/15 05:12:44;;;;;;;2.30;2.10;;;17.70;22.20;;;;;;5118215;28;20157;-53
2021/03/15 05:15:12;;;;;;;2.13;1.63;;;17.70;22.20;;;;;;5117655;28;20248;-53
2021/03/15 05:17:39;;;;;;;2.35;2.15;;;17.70;22.20;;;;;;5117958;28;20161;-53
2021/03/15 05:20:08;;;;;;;2.63;2.42;;;17.70;22.20;;;;;;5117817;28;20168;-53
2021/03/15 05:22:36;;;;;;;2.22;2.03;;;17.70;22.20;;;;;;5117383;28;20687;-53
2021/03/15 05:25:05;;;;;;;2.10;1.90;;;17.70;22.20;;;;;;5117779;28;20158;-53
2021/03/15 05:27:31;;;;;;;2.22;2.03;;;17.70;22.20;;;;;;5117807;28;20149;-53
2021/03/15 05:30:03;;;;;;;2.43;1.97;;;17.70;22.20;;;;;;5117247;28;20178;-53
2021/03/15 05:32:32;;;;;;;2.80;2.47;;;17.70;22.20;;;;;;5117711;28;20396;-52
2021/03/15 05:35:01;;;;;;;2.25;1.70;;;17.70;22.20;;;;;;5117434;28;20152;-52
2021/03/15 05:37:27;;;;;;;2.05;1.80;;;17.70;22.20;;;;;;5117407;28;20623;-53
2021/03/15 05:39:55;;;;;;;2.50;2.30;;;17.70;22.20;;;;;;5117646;28;20250;-52
2021/03/15 05:42:21;;;;;;;1.83;1.52;;;17.70;22.20;;;;;;5099290;28;20655;-53
2021/03/15 05:45:11;;;;;;;2.10;1.80;;;17.70;22.20;;;;;;5116910;28;20149;-53
2021/03/15 05:48:05;;;;;;;2.28;1.95;;;17.70;22.20;;;;;;5117434;28;20185;-52
2021/03/15 05:50:52;;;;;;;1.75;1.60;;;17.70;22.20;;;;;;5117277;28;20156;-53
2021/03/15 05:53:48;;;;;;;1.95;1.85;;;17.70;22.20;;;;;;5117625;28;20168;-52
2021/03/15 05:56:35;;;;;;;2.05;1.90;;;17.70;22.20;;;;;;5117513;28;20161;-53
2021/03/15 05:59:12;;;;;;;1.98;1.60;;;17.70;22.10;;;;;;5116651;28;20149;-53
2021/03/15 06:02:17;;;;;;;2.20;1.80;;;17.70;22.20;;;;;;5117258;28;20157;-54
2021/03/15 06:05:20;;;;;;;1.65;1.55;;;17.70;22.10;;;;;;5116846;28;20164;-53
2021/03/15 06:07:51;;;;;;;2.30;2.05;;;17.70;22.20;;;;;;5116900;28;20176;-54
2021/03/15 06:10:28;;;;;;;2.05;1.85;;;17.70;22.10;;;;;;5116958;28;20171;-54
2021/03/15 06:13:02;;;;;;;2.17;1.77;;;17.70;22.10;;;;;;5116978;28;20156;-53
2021/03/15 06:15:40;;;;;;;2.78;2.22;;;17.70;22.20;;;;;;5116624;28;20165;-53
2021/03/15 06:18:08;;;;;;;2.13;1.92;;;17.70;22.10;;;;;;5116783;28;20244;-54
2021/03/15 06:20:37;;;;;;;1.90;1.60;;;17.70;22.10;;;;;;5116465;28;20233;-53
2021/03/15 06:23:05;;;;;;;2.28;2.08;;;17.70;22.10;;;;;;5116620;28;20242;-53
2021/03/15 06:25:32;;;;;;;2.88;2.00;;;17.70;22.10;;;;;;5116619;28;20604;-53
2021/03/15 06:28:05;;;;;;;1.67;1.58;;;17.70;22.10;;;;;;5116679;28;20612;-53
2021/03/15 06:30:31;;;;;;;1.73;1.60;;;17.70;22.10;;;;;;5097933;28;20161;-53
2021/03/15 06:32:59;;;;;;;1.63;1.30;;;17.70;22.10;;;;;;5116349;28;20154;-53
2021/03/15 06:35:27;;;;;;;1.63;1.52;;;17.70;22.10;;;;;;5116193;28;20597;-53
2021/03/15 06:37:54;;;;;;;1.88;1.77;;;17.70;22.10;;;;;;5097821;28;20192;-53
2021/03/15 06:40:23;;;;;;;2.15;1.77;;;17.70;22.10;;;;;;5116337;28;20145;-53
2021/03/15 06:42:50;;;;;;;1.50;1.40;;;17.70;22.10;;;;;;5116104;28;20640;-53
2021/03/15 06:45:20;;;;;;;1.92;1.60;;;17.70;22.10;;;;;;5097597;28;20210;-54
2021/03/15 06:47:50;;;;;;;1.95;1.73;;;17.70;22.00;;;;;;5116022;28;20156;-54
2021/03/15 06:50:17;;;;;;;1.90;1.70;;;17.70;22.00;;;;;;5116039;28;20245;-53
2021/03/15 06:52:52;;;;;;;2.38;1.90;;;17.70;22.00;;;;;;5116221;28;20165;-54
2021/03/15 06:55:35;;;;;;;2.15;1.60;;;17.70;22.00;;;;;;5115792;28;20153;-53
2021/03/15 06:58:22;;;;;;;2.55;1.88;;;17.70;22.00;;;;;;5115986;28;20164;-53
2021/03/15 07:01:06;;;;;;;2.28;1.65;;;17.70;22.00;;;;;;5115309;28;20653;-53
2021/03/15 07:03:33;;;;;;;1.70;1.50;;;17.70;22.00;;;;;;5115566;28;20211;-53
2021/03/15 07:05:59;;;;;;;1.90;1.80;;;17.70;22.00;;;;;;5115394;28;20161;-54
2021/03/15 07:08:24;;;;;;;1.98;1.63;;;17.70;22.00;;;;;;5115465;28;20207;-53
2021/03/15 07:10:57;;;;;;;2.07;1.87;;;17.70;22.00;;;;;;5115576;28;20485;-53
2021/03/15 07:13:25;;;;;;;1.40;1.30;;;17.70;22.00;;;;;;5115459;28;20755;-53
2021/03/15 07:15:55;;;;;;;2.08;1.88;;;17.70;22.00;;;;;;5114781;28;20642;-53
2021/03/15 07:18:34;;;;;;;2.03;1.83;;;17.70;22.00;;;;;;5115334;28;20156;-53
2021/03/15 07:21:02;;;;;;;2.63;1.92;;;17.70;22.00;;;;;;5115068;28;20212;-53
2021/03/15 07:23:57;;;;;;;2.05;1.80;;;17.70;22.00;;;;;;5115371;28;20193;-53
2021/03/15 07:26:36;;;;;;;2.00;1.90;;;17.70;22.00;;;;;;5113365;28;20180;-54
2021/03/15 07:29:09;;;;;;;2.40;1.73;;;17.70;22.50;;;;;;5114746;28;20478;-54
2021/03/15 07:31:35;;;;;;;2.00;1.80;;;17.70;22.00;;;;;;5109877;28;20177;-53
2021/03/15 07:34:01;;;;;;;2.50;1.73;;;17.70;21.90;;;;;;5094862;27;20185;-52
2021/03/15 07:36:28;;;;;;;1.40;1.30;;;17.70;22.00;;;;;;5102603;27;20506;-51
2021/03/15 07:38:55;;;;;;;1.63;1.50;;;17.70;22.20;;;;;;5098493;28;20173;-52
2021/03/15 07:41:21;;;;;;;3.08;1.20;;;17.70;22.60;;;;;;5101281;28;20641;-53
2021/03/15 07:43:49;;;;;;;1.88;1.42;;;17.70;22.60;;;;;;5110306;28;20205;-52
2021/03/15 07:46:26;;;;;;;1.95;1.58;;;17.70;22.60;;;;;;5103400;28;20174;-52
2021/03/15 07:48:52;;;;;;;1.58;1.40;;;17.70;22.70;;;;;;5108352;28;20180;-52
2021/03/15 07:51:32;;;;;;;2.40;1.30;;;17.70;22.60;;;;;;5112140;28;20166;-53
2021/03/15 07:54:08;;;;;;;2.50;1.48;;;17.70;22.60;;;;;;5109071;28;20192;-52
2021/03/15 07:56:34;;;;;;;1.90;1.70;;;17.70;22.60;;;;;;5096439;28;20195;-52
2021/03/15 07:59:00;;;;;;;1.65;1.45;;;17.70;22.60;;;;;;5106230;27;20168;-53
2021/03/15 08:01:27;;;;;;;1.63;1.52;;;17.70;22.70;;;;;;5091414;27;20196;-54
2021/03/15 08:03:56;;;;;;;1.85;1.73;;;17.70;22.70;;;;;;5105729;28;20231;-52
2021/03/15 08:06:22;;;;;;;1.98;1.33;;;17.80;22.90;;;;;;5111480;28;20176;-52
2021/03/15 08:08:51;;;;;;;2.00;1.58;;;17.80;23.10;;;;;;5102815;28;20180;-53
2021/03/15 08:11:21;;;;;;;1.38;1.15;;;17.80;23.20;;;;;;5109438;28;20189;-52
2021/03/15 08:13:52;;;;;;;2.28;1.40;;;17.80;23.30;;;;;;5108716;28;20180;-53
2021/03/15 08:16:22;;;;;;;2.00;1.80;;;17.80;23.30;;;;;;5096688;28;20197;-52
2021/03/15 08:18:50;;;;;;;1.02;0.80;;;17.80;23.40;;;;;;5100775;27;20300;-52
2021/03/15 08:21:32;;;;;;;1.10;1.00;;;17.80;23.40;;;;;;5108063;28;20217;-52
2021/03/15 08:24:01;;;;;;;1.60;1.30;;;17.90;23.50;;;;;;5099073;28;20193;-52
2021/03/15 08:26:29;;;;;;;1.33;1.20;;;17.80;23.50;;;;;;5098572;28;20252;-53
2021/03/15 08:28:58;;;;;;;1.23;1.13;;;17.90;23.60;;;;;;5096933;27;20219;-52
2021/03/15 08:31:34;;;;;;;2.40;1.50;;;17.90;23.60;;;;;;5086910;28;20205;-52
2021/03/15 08:34:01;;;;;;;1.55;1.08;;;17.90;23.70;;;;;;5104207;28;20643;-52
2021/03/15 08:36:41;;;;;;;1.50;1.10;;;17.90;23.60;;;;;;5091359;28;20174;-52
2021/03/15 08:39:29;;;;;;;1.83;1.33;;;17.90;23.60;;;;;;5103800;28;20206;-53
2021/03/15 08:42:07;;;;;;;1.45;1.10;;;17.90;23.50;;;;;;5104814;28;20244;-53
2021/03/15 08:44:39;;;;;;;1.98;1.30;;;18.00;23.50;;;;;;5097998;28;20235;-52
2021/03/15 08:47:05;;;;;;;2.35;1.30;;;17.90;23.40;;;;;;5104676;28;20577;-53
2021/03/15 08:49:31;;;;;;;2.07;1.30;;;18.00;23.50;;;;;;5105783;28;20671;-53
2021/03/15 08:51:57;;;;;;;0.90;0.70;;;17.90;23.50;;;;;;5113556;28;20662;-53
2021/03/15 08:54:39;;;;;;;1.10;1.00;;;18.00;23.60;;;;;;5105980;28;20255;-53
2021/03/15 08:57:07;;;;;;;1.23;1.02;;;18.00;23.60;;;;;;5084785;28;20193;-52
2021/03/15 08:59:34;;;;;;;4.40;1.25;;;18.00;23.60;;;;;;5110683;28;20191;-53
2021/03/15 09:02:04;;;;;;;1.10;0.95;;;18.00;23.60;;;;;;5113131;28;20180;-53
2021/03/15 09:04:42;;;;;;;11.50;2.17;;;18.00;23.60;;;;;;5105034;28;20200;-52
2021/03/15 09:07:32;;;;;;;1.17;1.00;;;18.00;23.60;;;;;;5108735;28;20211;-53
2021/03/15 09:10:18;;;;;;;1.65;1.20;;;18.00;23.70;;;;;;5111527;28;20188;-52
2021/03/15 09:13:09;;;;;;;1.20;1.00;;;18.00;23.70;;;;;;5112873;28;20736;-53
2021/03/15 09:15:38;;;;;;;3.25;1.50;;;18.00;23.70;;;;;;5097661;28;20272;-52
2021/03/15 09:18:43;;;;;;;2.83;1.30;;;18.00;23.90;;;;;;5102754;28;20179;-52
2021/03/15 09:21:25;;;;;;;1.45;1.35;;;18.00;24.00;;;;;;5098538;28;20213;-52
2021/03/15 09:23:51;;;;;;;1.40;1.20;;;18.00;24.00;;;;;;5110038;28;20505;-52
2021/03/15 09:26:45;;;;;;;2.20;1.40;;;18.00;24.00;;;;;;5099330;28;20679;-52
2021/03/15 09:29:11;;;;;;;2.42;1.25;;;18.00;24.00;;;;;;5108646;28;20870;-52
2021/03/15 09:31:37;;;;;;;1.10;1.00;;;18.00;24.00;;;;;;5102855;28;20180;-53
2021/03/15 09:34:07;;;;;;;1.20;1.10;;;18.00;24.00;;;;;;5100442;28;20428;-52
2021/03/15 09:36:35;;;;;;;2.42;1.02;;;18.10;24.10;;;;;;5112558;28;20192;-52
2021/03/15 09:39:06;;;;;;;2.85;1.65;;;18.10;24.10;;;;;;5109069;28;20293;-53
2021/03/15 09:41:34;;;;;;;2.45;1.38;;;18.10;24.10;;;;;;5094109;28;20193;-53
2021/03/15 09:44:00;;;;;;;1.20;1.10;;;18.10;24.20;;;;;;5111436;28;20311;-52
2021/03/15 09:46:29;;;;;;;1.73;1.30;;;18.10;24.10;;;;;;5108706;28;20165;-52
2021/03/15 09:48:55;;;;;;;1.83;1.30;;;18.10;24.10;;;;;;5107958;28;20469;-52
2021/03/15 09:51:25;;;;;;;1.57;1.07;;;18.10;24.20;;;;;;5102235;28;20208;-53
2021/03/15 09:53:54;;;;;;;2.70;1.08;;;18.10;24.30;;;;;;5105406;28;20491;-52
2021/03/15 09:56:22;;;;;;;1.83;1.05;;;18.10;24.40;;;;;;5104651;28;20157;-52
2021/03/15 09:58:48;;;;;;;2.35;1.02;;;18.10;24.40;;;;;;5107249;27;20207;-52
2021/03/15 10:01:19;;;;;;;1.30;1.13;;;18.10;24.40;;;;;;5101780;28;20854;-52
2021/03/15 10:03:54;;;;;;;4.15;1.55;;;18.10;24.50;;;;;;5106230;28;21008;-52
2021/03/15 10:06:23;;;;;;;2.28;1.30;;;18.10;24.50;;;;;;5101684;28;20176;-52
2021/03/15 10:08:53;;;;;;;1.35;1.05;;;18.10;24.50;;;;;;5113537;28;20204;-52
2021/03/15 10:11:20;;;;;;;1.67;1.30;;;18.20;24.60;;;;;;5109881;28;20169;-52
2021/03/15 10:14:02;;;;;;;1.88;1.30;;;18.10;25.00;;;;;;5116430;28;20157;-52
2021/03/15 10:16:30;;;;;;;2.88;1.00;;;18.20;24.50;;;;;;5111190;28;20188;-52
2021/03/15 10:18:56;;;;;;;1.10;0.90;;;18.20;24.50;;;;;;5115292;27;20189;-52
2021/03/15 10:21:26;;;;;;;1.87;1.10;;;18.20;24.40;;;;;;5114948;28;20299;-52
2021/03/15 10:23:51;;;;;;;2.60;1.38;;;18.20;24.40;;;;;;5112172;27;20539;-53
2021/03/15 10:26:17;;;;;;;2.07;1.67;;;18.20;24.40;;;;;;5106734;28;20624;-52
2021/03/15 10:28:48;;;;;;;2.60;1.27;;;18.20;24.50;;;;;;5114897;28;20663;-52
2021/03/15 10:31:14;;;;;;;2.42;1.00;;;18.20;24.40;;;;;;5113007;28;20511;-52
2021/03/15 10:33:46;;;;;;;1.73;1.30;;;18.20;24.40;;;;;;5115868;28;20252;-53
2021/03/15 10:36:17;;;;;;;2.70;1.30;;;18.20;24.40;;;;;;5114456;27;20394;-53
2021/03/15 10:38:43;;;;;;;1.40;1.05;;;18.20;24.40;;;;;;5110190;27;20175;-53
2021/03/15 10:41:11;;;;;;;1.63;1.23;;;18.20;24.40;;;;;;5101668;27;20483;-51
2021/03/15 10:43:37;;;;;;;1.30;1.20;;;18.20;24.30;;;;;;5107808;27;20489;-52
2021/03/15 10:46:26;;;;;;;3.17;1.27;;;18.30;24.40;;;;;;5103997;28;20157;-51
2021/03/15 10:48:52;;;;;;;1.85;1.40;;;18.30;24.40;;;;;;5105279;28;20424;-52
2021/03/15 10:51:18;;;;;;;2.57;1.27;;;18.30;24.40;;;;;;5105285;28;20176;-52
2021/03/15 10:53:49;;;;;;;2.50;1.57;;;18.30;24.50;;;;;;5093497;27;20421;-52
2021/03/15 10:56:22;;;;;;;6.18;1.48;;;18.30;24.50;;;;;;5113201;27;20510;-52
2021/03/15 10:58:48;;;;;;;3.08;1.38;;;18.30;24.70;;;;;;5109027;27;20184;-52
2021/03/15 11:01:25;;;;;;;2.00;1.33;;;18.30;24.70;;;;;;5107014;27;20227;-52
2021/03/15 11:03:51;;;;;;;1.98;1.30;;;18.40;24.80;;;;;;5105679;27;20494;-52
2021/03/15 11:06:20;;;;;;;1.85;1.20;;;18.40;24.70;;;;;;5102565;28;20263;-53
2021/03/15 11:08:57;;;;;;;2.95;1.40;;;18.40;24.60;;;;;;5101772;28;20265;-52
2021/03/15 11:11:25;;;;;;;1.20;1.10;;;18.40;24.50;;;;;;5105755;28;20173;-53
2021/03/15 11:13:53;;;;;;;2.95;1.63;;;18.50;24.50;;;;;;5104818;28;20636;-52
2021/03/15 11:16:21;;;;;;;1.10;0.95;;;18.50;24.50;;;;;;5115135;28;20501;-53
2021/03/15 11:19:12;;;;;;;2.20;1.48;;;18.50;24.40;;;;;;5105199;28;20269;-52
2021/03/15 11:21:50;;;;;;;1.35;1.25;;;18.50;24.30;;;;;;5105833;27;20324;-52
2021/03/15 11:24:24;;;;;;;1.98;1.10;;;18.50;24.40;;;;;;5107176;27;20188;-53
2021/03/15 11:26:52;;;;;;;1.85;1.20;;;18.50;24.40;;;;;;5105557;28;20165;-52
2021/03/15 11:29:40;;;;;;;2.35;0.93;;;18.60;24.50;;;;;;5108614;28;20157;-52
2021/03/15 11:32:13;;;;;;;3.53;1.20;;;18.60;24.50;;;;;;5097084;27;20176;-52
2021/03/15 11:34:52;;;;;;;1.85;1.20;;;18.60;24.50;;;;;;5110581;28;20651;-52
2021/03/15 11:37:29;;;;;;;1.73;1.38;;;18.60;24.40;;;;;;5111472;28;20612;-52
2021/03/15 11:39:55;;;;;;;1.52;1.42;;;18.60;24.40;;;;;;5089792;27;20177;-52
2021/03/15 11:42:31;;;;;;;3.92;1.20;;;18.60;24.50;;;;;;5107190;28;20245;-52
2021/03/15 11:44:58;;;;;;;2.30;1.13;;;18.60;24.50;;;;;;5106674;27;20228;-51
2021/03/15 11:47:24;;;;;;;2.25;1.20;;;18.60;24.40;;;;;;5105838;28;20188;-52
2021/03/15 11:49:49;;;;;;;2.40;1.23;;;18.60;24.40;;;;;;5104951;27;20628;-52
2021/03/15 11:52:29;;;;;;;3.20;1.00;;;18.60;24.40;;;;;;5102888;28;20225;-52
2021/03/15 11:54:55;;;;;;;2.15;1.30;;;18.60;24.40;;;;;;5102554;28;20162;-51
2021/03/15 11:57:20;;;;;;;1.80;1.27;;;18.60;24.50;;;;;;5113660;27;20613;-52
2021/03/15 11:59:46;;;;;;;1.73;1.20;;;18.70;24.50;;;;;;5100319;28;20215;-52
2021/03/15 12:02:12;;;;;;;4.53;1.33;;;18.60;24.40;;;;;;5100384;27;20435;-52
2021/03/15 12:04:38;;;;;;;2.50;1.67;;;18.60;24.50;;;;;;5102314;28;20208;-52
2021/03/15 12:07:04;;;;;;;1.75;1.58;;;18.60;24.50;;;;;;5107146;28;20427;-52
2021/03/15 12:09:32;;;;;;;1.60;1.10;;;18.60;24.50;;;;;;5111366;27;20659;-52
2021/03/15 12:12:01;;;;;;;2.72;1.60;;;18.60;24.60;;;;;;5110065;27;20193;-52
2021/03/15 12:14:26;;;;;;;2.08;1.20;;;18.60;24.60;;;;;;5113733;27;20676;-52
2021/03/15 12:16:52;;;;;;;1.97;1.20;;;18.60;24.60;;;;;;5113247;27;20264;-52
2021/03/15 12:19:17;;;;;;;1.37;1.10;;;18.70;24.60;;;;;;5104876;28;20208;-52
2021/03/15 12:21:43;;;;;;;3.90;1.70;;;18.70;25.10;;;;;;5113780;28;20220;-52
2021/03/15 12:24:09;;;;;;;5.03;1.57;;;18.70;24.60;;;;;;5112667;28;20293;-52
2021/03/15 12:26:35;;;;;;;1.98;1.42;;;18.70;24.60;;;;;;5112793;28;20180;-52
2021/03/15 12:29:03;;;;;;;1.53;1.10;;;18.70;24.60;;;;;;5105498;28;20181;-52
2021/03/15 12:31:29;;;;;;;2.28;1.38;;;18.70;24.60;;;;;;5112873;28;20539;-52
2021/03/15 12:33:54;;;;;;;5.90;1.60;;;18.70;24.60;;;;;;5095192;28;20631;-52
2021/03/15 12:36:20;;;;;;;1.67;1.40;;;18.70;24.60;;;;;;5112133;28;20267;-51
2021/03/15 12:38:49;;;;;;;2.63;1.50;;;18.70;24.50;;;;;;5093490;28;20275;-52
2021/03/15 12:41:14;;;;;;;5.28;1.40;;;18.70;24.50;;;;;;5126670;27;20181;-52
2021/03/15 12:43:40;;;;;;;1.47;1.03;;;18.70;24.50;;;;;;5111765;28;20265;-52
2021/03/15 12:46:06;;;;;;;3.10;1.10;;;18.70;24.50;;;;;;5113207;28;20185;-52
2021/03/15 12:48:39;;;;;;;2.43;1.57;;;18.70;24.50;;;;;;5111314;28;20637;-52
2021/03/15 12:51:05;;;;;;;2.78;1.35;;;18.70;24.40;;;;;;5112373;28;20157;-52
2021/03/15 12:53:30;;;;;;;1.27;0.90;;;18.80;24.40;;;;;;5112931;28;20561;-52
2021/03/15 12:55:56;;;;;;;1.20;1.10;;;18.80;24.40;;;;;;5112920;28;20229;-52
2021/03/15 12:58:22;;;;;;;2.80;1.00;;;18.80;24.30;;;;;;5111236;28;20612;-53
2021/03/15 13:00:47;;;;;;;2.47;1.33;;;18.90;24.30;;;;;;5111595;28;20245;-52
2021/03/15 13:03:13;;;;;;;2.50;1.20;;;18.90;24.20;;;;;;5111172;28;20343;-51
2021/03/15 13:05:39;;;;;;;3.03;1.63;;;18.90;24.10;;;;;;5113121;28;20624;-52